Data for 01/03/2015

Time Sea-Level Adjusted Pressure Absolute Pressure Temperature Relative Humidity Dew Point   
(mb) (inHg) (mb) (inHg) (C) (F) (%) (C) (F)
00:05 1011 29.85 840 24.81 -2.9 26.7 92 -4.1 24.6
00:10 1011 29.85 840 24.81 -3 26.6 91 -4.2 24.4
00:15 1011 29.85 841 24.83 -3.1 26.3 92 -4.3 24.3
00:20 1012 29.88 841 24.83 -3.2 26.2 92 -4.4 24.2
00:25 1012 29.88 841 24.83 -3.4 25.9 92 -4.5 23.9
00:30 1012 29.88 841 24.83 -3.4 25.8 92 -4.5 23.8
00:35 1012 29.88 841 24.83 -3.5 25.7 92 -4.6 23.6
00:40 1012 29.88 841 24.83 -3.6 25.5 92 -4.8 23.4
00:45 1012 29.88 841 24.83 -3.7 25.4 92 -4.8 23.3
00:50 1012 29.88 841 24.83 -3.8 25.2 92 -4.9 23.1
00:55 1012 29.88 841 24.83 -3.9 25 92 -5 22.9
01:00 1012 29.88 841 24.83 -4 24.7 92 -5.2 22.7
01:05 1012 29.88 841 24.83 -4.1 24.6 92 -5.2 22.6
01:10 1012 29.88 841 24.83 -4.2 24.4 92 -5.4 22.4
01:15 1012 29.88 841 24.83 -4.3 24.3 92 -5.4 22.3
01:20 1012 29.88 841 24.83 -4.3 24.2 92 -5.4 22.3
01:25 1012 29.88 841 24.83 -4.4 24.1 93 -5.4 22.2
01:30 1012 29.88 841 24.83 -4.4 24 93 -5.4 22.3
01:35 1012 29.88 841 24.83 -4.4 24.1 93 -5.3 22.5
01:40 1012 29.88 841 24.83 -4.5 24 93 -5.4 22.3
01:45 1012 29.88 841 24.83 -4.5 23.9 94 -5.3 22.4
01:50 1012 29.88 841 24.83 -4.4 24 94 -5.3 22.5
01:55 1012 29.88 841 24.83 -4.4 24.1 94 -5.2 22.6
02:00 1012 29.88 841 24.83 -4.5 24 94 -5.3 22.5
02:05 1012 29.88 841 24.83 -4.5 23.9 94 -5.3 22.4
02:10 1012 29.88 841 24.83 -4.6 23.8 94 -5.3 22.4
02:15 1012 29.88 841 24.83 -4.5 23.9 94 -5.3 22.5
02:20 1012 29.88 841 24.83 -4.4 24.1 94 -5.2 22.7
02:25 1012 29.88 841 24.83 -4.2 24.4 94 -5 22.9
02:30 1012 29.88 841 24.83 -4.2 24.5 94 -5 23.1
02:35 1012 29.88 841 24.83 -4.1 24.7 94 -4.9 23.1
02:40 1012 29.88 842 24.86 -4.1 24.6 93 -5.1 22.9
02:45 1013 29.91 842 24.86 -4.3 24.3 93 -5.3 22.5
02:50 1013 29.91 842 24.86 -4.4 24 93 -5.4 22.2
02:55 1013 29.91 842 24.86 -4.6 23.8 93 -5.6 22
03:00 1013 29.91 842 24.86 -4.6 23.6 93 -5.6 21.8
03:05 1013 29.91 842 24.86 -4.7 23.5 93 -5.7 21.7
03:10 1013 29.91 842 24.86 -4.8 23.4 92 -5.8 21.5
03:15 1013 29.91 842 24.86 -4.9 23.2 92 -6 21.2
03:20 1013 29.91 842 24.86 -5 22.9 91 -6.3 20.7
03:25 1013 29.91 842 24.86 -5.4 22.4 91 -6.5 20.2
03:30 1013 29.91 843 24.89 -5.7 21.8 91 -6.8 19.7
03:35 1013 29.91 843 24.89 -5.8 21.5 92 -6.9 19.5
03:40 1014 29.94 843 24.89 -5.9 21.3 92 -7.1 19.3
03:45 1014 29.94 843 24.89 -6.1 21 91 -7.4 18.7
03:50 1014 29.94 843 24.89 -6.4 20.4 89 -7.9 17.8
03:55 1014 29.94 843 24.89 -6.9 19.6 89 -8.5 16.8
04:00 1014 29.94 843 24.89 -7.4 18.7 89 -8.8 16.1
04:05 1014 29.94 843 24.89 -7.5 18.4 89 -9 15.8
04:10 1014 29.94 843 24.89 -7.7 18.2 88 -9.3 15.2
04:15 1014 29.94 844 24.92 -7.9 17.7 87 -9.8 14.4
04:20 1015 29.97 844 24.92 -8.2 17.3 87 -10 14
04:25 1015 29.97 844 24.92 -8.2 17.2 87 -10.1 13.9
04:30 1015 29.97 844 24.92 -8.3 17.1 87 -10.1 13.8
04:35 1015 29.97 844 24.92 -8.4 16.9 86 -10.3 13.5
04:40 1015 29.97 844 24.92 -8.6 16.6 85 -10.6 12.9
04:45 1015 29.97 845 24.95 -8.9 16 84 -11.1 12
04:50 1015 29.97 845 24.95 -9.3 15.3 85 -11.4 11.5
04:55 1016 30 845 24.95 -9.4 15.1 86 -11.4 11.5
05:00 1016 30 845 24.95 -9.4 15.1 85 -11.5 11.3
05:05 1016 30 845 24.95 -9.6 14.7 85 -11.7 11
05:10 1016 30 845 24.95 -9.8 14.5 86 -11.7 10.9
05:15 1016 30 845 24.95 -9.7 14.5 86 -11.6 11.1
05:20 1016 30 845 24.95 -9.8 14.4 86 -11.7 10.9
05:25 1016 30 845 24.95 -9.9 14.1 86 -11.8 10.8
05:30 1016 30 846 24.98 -10.1 13.9 86 -12 10.5
05:35 1016 30 846 24.98 -10.2 13.6 87 -12 10.4
05:40 1017 30.03 846 24.98 -10.3 13.4 88 -12 10.5
05:45 1017 30.03 846 24.98 -10.5 13.2 88 -12 10.3
05:50 1017 30.03 846 24.98 -10.5 13 88 -12.2 10
05:55 1017 30.03 846 24.98 -10.7 12.7 88 -12.3 9.8
06:00 1017 30.03 846 24.98 -10.9 12.5 87 -12.7 9.2
06:05 1017 30.03 846 24.98 -11.3 11.7 87 -13 8.6
06:10 1017 30.03 846 24.98 -11.5 11.4 87 -13.2 8.2
06:15 1017 30.03 847 25.01 -11.7 11 87 -13.4 7.9
06:20 1017 30.03 847 25.01 -11.8 10.8 87 -13.5 7.6
06:25 1018 30.06 847 25.01 -11.9 10.7 87 -13.6 7.6
06:30 1018 30.06 847 25.01 -11.9 10.5 87 -13.7 7.3
06:35 1018 30.06 847 25.01 -12.1 10.2 86 -14 6.8
06:40 1018 30.06 847 25.01 -12.3 9.8 86 -14.2 6.5
06:45 1018 30.06 847 25.01 -12.5 9.6 86 -14.4 6.1
06:50 1018 30.06 848 25.04 -12.7 9.2 86 -14.6 5.8
06:55 1018 30.06 848 25.04 -12.9 8.9 86 -14.8 5.4
07:00 1018 30.06 848 25.04 -13 8.7 86 -14.9 5.2
07:05 1019 30.09 848 25.04 -13.1 8.4 86 -15 4.9
07:10 1019 30.09 848 25.04 -13.3 8.1 86 -15.1 4.8
07:15 1019 30.09 848 25.04 -13.4 8 87 -15.1 4.8
07:20 1019 30.09 848 25.04 -13.3 8 87 -15.1 4.9
07:25 1019 30.09 848 25.04 -13.2 8.2 87 -15 5
07:30 1019 30.09 848 25.04 -13 8.5 87 -14.8 5.4
07:35 1019 30.09 848 25.04 -12.9 8.8 87 -14.6 5.7
07:40 1019 30.09 848 25.04 -12.8 9 86 -14.6 5.6
07:45 1019 30.09 848 25.04 -12.9 8.9 86 -14.7 5.5
07:50 1019 30.09 849 25.07 -12.8 8.9 86 -14.7 5.5
07:55 1020 30.12 849 25.07 -12.9 8.8 85 -14.9 5.2
08:00 1020 30.12 849 25.07 -12.9 8.7 85 -15 5
08:05 1020 30.12 849 25.07 -13.1 8.4 84 -15.3 4.5
08:10 1020 30.12 849 25.07 -13.2 8.3 84 -15.3 4.4
08:15 1020 30.12 849 25.07 -13.3 8.1 83 -15.6 4
08:20 1020 30.12 849 25.07 -13.5 7.8 83 -15.8 3.6
08:25 1020 30.12 849 25.07 -13.6 7.6 83 -15.8 3.5
08:30 1020 30.12 849 25.07 -13.6 7.4 83 -16 3.3
08:35 1020 30.12 850 25.1 -13.7 7.4 83 -16 3.2
08:40 1020 30.12 850 25.1 -13.8 7.1 83 -16.1 3.1
08:45 1020 30.12 849 25.07 -13.9 7 83 -16.2 2.8
08:50 1020 30.12 850 25.1 -14 6.7 83 -16.3 2.7
08:55 1020 30.12 850 25.1 -14 6.9 83 -16.2 2.8
09:00 1021 30.15 850 25.1 -14 6.9 84 -16.2 2.9
09:05 1021 30.15 850 25.1 -14 6.7 84 -16.2 2.8
09:10 1021 30.15 850 25.1 -14 6.8 83 -16.3 2.7
09:15 1021 30.15 850 25.1 -14.1 6.6 83 -16.5 2.3
09:20 1021 30.15 850 25.1 -14.3 6.3 84 -16.4 2.5
09:25 1021 30.15 850 25.1 -14.3 6.4 85 -16.3 2.6
09:30 1021 30.15 850 25.1 -14.2 6.4 84 -16.3 2.6
09:35 1021 30.15 850 25.1 -14.3 6.2 85 -16.3 2.6
09:40 1021 30.15 850 25.1 -14.4 6.1 85 -16.4 2.5
09:45 1021 30.15 850 25.1 -14.5 6 85 -16.4 2.5
09:50 1021 30.15 850 25.1 -14.4 6.2 85 -16.3 2.6
09:55 1021 30.15 850 25.1 -14.3 6.2 85 -16.3 2.6
10:00 1021 30.15 851 25.13 -14.2 6.5 86 -16.1 3.1
10:05 1021 30.15 851 25.13 -13.9 6.9 84 -16 3.1
10:10 1022 30.18 851 25.13 -13.9 7 85 -15.9 3.3
10:15 1022 30.18 851 25.13 -13.7 7.3 84 -15.9 3.4
10:20 1022 30.18 851 25.13 -13.6 7.5 84 -15.8 3.5
10:25 1022 30.18 851 25.13 -13.5 7.6 83 -15.8 3.6
10:30 1022 30.18 851 25.13 -13.4 7.8 83 -15.7 3.8
10:35 1022 30.18 851 25.13 -13.4 8 82 -15.8 3.5
10:40 1022 30.18 851 25.13 -13.4 7.8 82 -15.9 3.3
10:45 1022 30.18 851 25.13 -13.4 7.9 81 -16 3.3
10:50 1022 30.18 851 25.13 -13.4 7.8 81 -16 3.2
10:55 1022 30.18 851 25.13 -13.4 7.9 81 -16 3.3
11:00 1022 30.18 851 25.13 -13.3 8 80 -16.1 3.1
11:05 1022 30.18 851 25.13 -13.4 7.8 81 -16.1 3.1
11:10 1022 30.18 851 25.13 -13.3 8.2 80 -16 3.2
11:15 1022 30.18 851 25.13 -13.1 8.4 79 -16 3.3
11:20 1022 30.18 851 25.13 -13 8.6 79 -15.8 3.5
11:25 1022 30.18 851 25.13 -13 8.5 79 -15.9 3.3
11:30 1022 30.18 851 25.13 -13.1 8.5 79 -16 3.3
11:35 1022 30.18 851 25.13 -13 8.6 78 -16 3.2
11:40 1022 30.18 851 25.13 -12.9 8.8 79 -15.9 3.4
11:45 1022 30.18 851 25.13 -12.7 9.2 77 -15.9 3.4
11:50 1022 30.18 851 25.13 -12.5 9.4 77 -15.8 3.6
11:55 1022 30.18 851 25.13 -12.5 9.6 77 -15.7 3.7
12:00 1022 30.18 851 25.13 -12.5 9.5 75 -16.1 3
12:05 1021 30.15 851 25.13 -13.1 8.4 78 -16.2 2.9
12:10 1021 30.15 851 25.13 -13 8.7 78 -16 3.1
12:15 1021 30.15 851 25.13 -12.8 8.9 77 -16.1 3
12:20 1021 30.15 851 25.13 -12.5 9.5 75 -16 3.2
12:25 1021 30.15 850 25.1 -12.5 9.5 76 -15.9 3.4
12:30 1021 30.15 850 25.1 -12.3 9.9 75 -15.9 3.4
12:35 1021 30.15 850 25.1 -12.2 10.1 75 -15.8 3.6
12:40 1021 30.15 850 25.1 -11.6 11.2 73 -15.6 4
12:45 1021 30.15 850 25.1 -11.5 11.3 72 -15.6 3.9
12:50 1021 30.15 850 25.1 -11.5 11.4 73 -15.4 4.2
12:55 1021 30.15 850 25.1 -11.6 11.1 72 -15.7 3.7
13:00 1021 30.15 850 25.1 -11.8 10.8 72 -15.8 3.5
13:05 1021 30.15 850 25.1 -11.8 10.7 72 -15.9 3.4
13:10 1021 30.15 850 25.1 -11.7 11 72 -15.9 3.5
13:15 1021 30.15 850 25.1 -11.6 11.2 71 -15.8 3.6
13:20 1021 30.15 850 25.1 -11.2 11.8 67 -16.1 3
13:25 1021 30.15 850 25.1 -10.9 12.3 68 -15.8 3.6
13:30 1021 30.15 850 25.1 -10.5 13.1 65 -15.9 3.4
13:35 1021 30.15 850 25.1 -10.4 13.2 65 -15.8 3.5
13:40 1021 30.15 850 25.1 -10.4 13.3 65 -15.8 3.6
13:45 1021 30.15 850 25.1 -10.2 13.7 64 -15.8 3.6
13:50 1021 30.15 850 25.1 -10.1 13.8 63 -15.8 3.5
13:55 1021 30.15 850 25.1 -10.2 13.6 64 -15.7 3.8
14:00 1021 30.15 850 25.1 -10.7 12.8 66 -15.9 3.3
14:05 1021 30.15 850 25.1 -11 12.3 65 -16.4 2.6
14:10 1021 30.15 850 25.1 -12 10.5 69 -16.6 2.2
14:15 1021 30.15 850 25.1 -12 10.4 68 -16.7 1.9
14:20 1021 30.15 850 25.1 -12 10.4 68 -16.8 1.7
14:25 1021 30.15 850 25.1 -12 10.4 69 -16.6 2
14:30 1021 30.15 850 25.1 -11.9 10.6 68 -16.7 1.9
14:35 1021 30.15 850 25.1 -11.8 10.7 68 -16.6 2.1
14:40 1021 30.15 850 25.1 -11.6 11.1 67 -16.6 2.2
14:45 1021 30.15 850 25.1 -12.4 9.7 70 -16.8 1.8
14:50 1021 30.15 850 25.1 -11.9 10.7 67 -16.8 1.8
14:55 1021 30.15 850 25.1 -11.3 11.6 67 -16.3 2.6
15:00 1021 30.15 850 25.1 -11.7 11 66 -16.8 1.8
15:05 1021 30.15 850 25.1 -11.7 10.9 67 -16.7 1.9
15:10 1021 30.15 850 25.1 -12.1 10.2 69 -16.8 1.8
15:15 1021 30.15 850 25.1 -11.9 10.6 67 -16.8 1.8
15:20 1020 30.12 850 25.1 -11.8 10.8 67 -16.7 1.9
15:25 1020 30.12 850 25.1 -11.9 10.6 67 -16.8 1.8
15:30 1020 30.12 849 25.07 -12.2 10 69 -16.7 1.9
15:35 1020 30.12 849 25.07 -11.1 12 65 -16.4 2.5
15:40 1020 30.12 849 25.07 -11.1 12.1 65 -16.5 2.3
15:45 1020 30.12 849 25.07 -11 12.3 62 -16.9 1.5
15:50 1020 30.12 849 25.07 -10.9 12.4 64 -16.5 2.2
15:55 1020 30.12 849 25.07 -11.1 12 64 -16.6 2.1
16:00 1020 30.12 849 25.07 -11.3 11.6 66 -16.4 2.4
16:05 1020 30.12 850 25.1 -11.3 11.6 66 -16.4 2.5
16:10 1020 30.12 850 25.1 -10.9 12.3 66 -16 3.1
16:15 1020 30.12 850 25.1 -10.9 12.3 64 -16.4 2.5
16:20 1020 30.12 850 25.1 -11.1 12.1 67 -16.1 2.9
16:25 1021 30.15 850 25.1 -11 12.2 67 -16.1 3.1
16:30 1021 30.15 850 25.1 -11.1 12.1 66 -16.1 2.9
16:35 1021 30.15 850 25.1 -11.2 11.9 67 -16.1 3
16:40 1021 30.15 850 25.1 -11.4 11.5 68 -16.2 2.8
16:45 1021 30.15 850 25.1 -11.5 11.4 68 -16.2 2.8
16:50 1021 30.15 850 25.1 -11.5 11.2 68 -16.4 2.5
16:55 1021 30.15 850 25.1 -11.7 11 68 -16.5 2.2
17:00 1021 30.15 850 25.1 -11.8 10.7 68 -16.6 2.2
17:05 1021 30.15 850 25.1 -12 10.4 69 -16.6 2
17:10 1021 30.15 850 25.1 -12.2 10 70 -16.7 2
17:15 1021 30.15 850 25.1 -12.5 9.4 71 -16.8 1.8
17:20 1021 30.15 850 25.1 -12.8 8.9 72 -16.8 1.7
17:25 1021 30.15 850 25.1 -13.1 8.4 73 -16.9 1.5
17:30 1021 30.15 850 25.1 -13.3 8.1 75 -16.9 1.6
17:35 1021 30.15 850 25.1 -13.4 7.9 75 -16.9 1.6
17:40 1021 30.15 850 25.1 -13.4 7.8 75 -16.9 1.5
17:45 1021 30.15 850 25.1 -13.5 7.7 75 -17 1.4
17:50 1021 30.15 850 25.1 -13.7 7.4 76 -17 1.4
17:55 1021 30.15 850 25.1 -13.8 7.2 76 -17.1 1.2
18:00 1021 30.15 850 25.1 -13.8 7.1 77 -17.1 1.2
18:05 1021 30.15 850 25.1 -14 6.9 78 -17.1 1.2
18:10 1021 30.15 850 25.1 -14.1 6.5 78 -17.2 1.1
18:15 1021 30.15 850 25.1 -14.2 6.5 78 -17.2 1
18:20 1021 30.15 850 25.1 -14.3 6.3 79 -17.1 1.2
18:25 1021 30.15 850 25.1 -14.4 6 80 -17.2 1.1
18:30 1021 30.15 850 25.1 -14.7 5.5 81 -17.3 0.9
18:35 1021 30.15 850 25.1 -14.7 5.6 81 -17.3 0.9
18:40 1021 30.15 850 25.1 -14.7 5.5 81 -17.3 0.8
18:45 1021 30.15 850 25.1 -14.6 5.7 81 -17.2 1.1
18:50 1021 30.15 850 25.1 -14.5 5.8 81 -17.1 1.2
18:55 1021 30.15 850 25.1 -14.5 6 81 -17 1.4
19:00 1021 30.15 850 25.1 -14.4 6 80 -17.2 1
19:05 1021 30.15 850 25.1 -14.6 5.8 81 -17.2 1
19:10 1021 30.15 850 25.1 -14.6 5.7 82 -17.1 1.2
19:15 1021 30.15 850 25.1 -14.5 5.9 81 -17.1 1.3
19:20 1021 30.15 851 25.13 -14.4 6 80 -17.2 1.1
19:25 1021 30.15 851 25.13 -14.4 6 80 -17.2 1.1
19:30 1021 30.15 851 25.13 -14.5 6 80 -17.3 0.9
19:35 1021 30.15 851 25.13 -14.8 5.5 80 -17.5 0.5
19:40 1021 30.15 851 25.13 -15.1 4.9 81 -17.7 0.1
19:45 1021 30.15 851 25.13 -15.2 4.6 81 -17.8 -0.1
19:50 1021 30.15 851 25.13 -15.2 4.6 80 -17.9 -0.2
19:55 1021 30.15 851 25.13 -15.3 4.5 81 -17.8 -0.1
20:00 1021 30.15 851 25.13 -15.1 4.7 81 -17.7 0.2
20:05 1021 30.15 851 25.13 -15.2 4.7 81 -17.8 -0.1
20:10 1021 30.15 851 25.13 -15.3 4.4 81 -17.8 -0.1
20:15 1021 30.15 850 25.1 -15.3 4.4 82 -17.7 0.1
20:20 1021 30.15 850 25.1 -15.3 4.6 82 -17.6 0.2
20:25 1021 30.15 850 25.1 -15.2 4.6 82 -17.7 0.2
20:30 1021 30.15 850 25.1 -15.2 4.7 82 -17.6 0.3
20:35 1021 30.15 850 25.1 -15.3 4.5 83 -17.6 0.3
20:40 1021 30.15 850 25.1 -15.3 4.4 84 -17.5 0.5
20:45 1021 30.15 851 25.13 -15.2 4.7 83 -17.5 0.6
20:50 1021 30.15 851 25.13 -14.9 5.1 82 -17.3 0.8
20:55 1021 30.15 851 25.13 -14.8 5.3 82 -17.2 1
21:00 1021 30.15 851 25.13 -14.8 5.4 82 -17.2 1
21:05 1021 30.15 851 25.13 -14.7 5.5 82 -17.1 1.2
21:10 1021 30.15 851 25.13 -14.6 5.6 82 -17 1.3
21:15 1021 30.15 851 25.13 -14.6 5.7 82 -17 1.4
21:20 1021 30.15 851 25.13 -14.6 5.8 81 -17.1 1.2
21:25 1022 30.18 851 25.13 -14.6 5.7 81 -17.1 1.2
21:30 1022 30.18 851 25.13 -14.7 5.5 81 -17.3 0.9
21:35 1022 30.18 851 25.13 -14.8 5.5 82 -17.1 1.2
21:40 1022 30.18 851 25.13 -14.6 5.8 82 -17.1 1.3
21:45 1022 30.18 851 25.13 -14.5 5.9 82 -17 1.5
21:50 1022 30.18 851 25.13 -14.4 6.1 81 -16.9 1.5
21:55 1022 30.18 851 25.13 -14.3 6.3 81 -16.9 1.5
22:00 1022 30.18 851 25.13 -14.3 6.3 81 -16.9 1.5
22:05 1022 30.18 851 25.13 -14.3 6.4 80 -17 1.5
22:10 1022 30.18 851 25.13 -14.5 6 81 -17 1.4
22:15 1022 30.18 851 25.13 -14.5 5.8 82 -17 1.4
22:20 1022 30.18 851 25.13 -14.5 6 82 -16.9 1.6
22:25 1022 30.18 851 25.13 -14.5 6 82 -16.9 1.6
22:30 1022 30.18 851 25.13 -14.5 5.9 82 -17 1.4
22:35 1022 30.18 851 25.13 -14.7 5.6 82 -17 1.3
22:40 1022 30.18 851 25.13 -14.6 5.7 82 -17.1 1.3
22:45 1022 30.18 851 25.13 -14.8 5.4 83 -17.1 1.3
22:50 1022 30.18 851 25.13 -14.8 5.4 83 -17.1 1.2
22:55 1022 30.18 851 25.13 -14.8 5.4 83 -17.1 1.2
23:00 1022 30.18 851 25.13 -14.8 5.4 83 -17 1.3
23:05 1022 30.18 851 25.13 -14.8 5.3 83 -17.1 1.3
23:10 1022 30.18 851 25.13 -14.9 5.3 83 -17.1 1.3
23:15 1022 30.18 851 25.13 -14.9 5.3 83 -17.1 1.2
23:20 1022 30.18 851 25.13 -14.8 5.3 83 -17.1 1.2
23:25 1022 30.18 851 25.13 -14.9 5.2 84 -17.1 1.2
23:30 1022 30.18 851 25.13 -14.9 5.2 84 -17.1 1.3
23:35 1022 30.18 851 25.13 -14.8 5.3 84 -17 1.4
23:40 1022 30.18 851 25.13 -14.8 5.4 83 -17 1.3
23:45 1022 30.18 851 25.13 -14.8 5.3 83 -17.1 1.2
23:50 1022 30.18 851 25.13 -14.9 5.3 83 -17.1 1.2
23:55 1022 30.18 851 25.13 -14.8 5.3 84 -16.9 1.6
24:00 1022 30.18 851 25.13 -14.6 5.7 83 -16.8 1.7